EFMA/MHQ METAR and TAF weather

Enter ICAO airport designator
Station Type Date Time Source
EFMA METAR 2019/06/24 23:50 UTC NOAA

EFMA 242350Z AUTO VRB01KT CAVOK 08/07 Q1031


Station Type Date Time Source
EFMA Decoded METAR 2019/06/24 23:50 UTC NOAA

Mariehamn / Aland Island, Finland (EFMA) 60-07N 019-54E
Jun 24, 2019 - 07:50 PM EDT / 2019.06.24 2350 UTC
Wind: Variable at 1 MPH (1 KT):0
Visibility: greater than 7 mile(s):0
Temperature: 46 F (8 C)
Dew Point: 44 F (7 C)
Relative Humidity: 93%
Pressure (altimeter): 30.45 in. Hg (1031 hPa)
ob: EFMA 242350Z AUTO VRB01KT CAVOK 08/07 Q1031
cycle: 0

Station Type Date Time Source
EFMA TAF 2014/05/01 21:18 UTC NOAA

TAF TAF EFMA 302037Z 3021/0106 08008KT CAVOK
TEMPO 3023/0101 02010KT 6000 RASN
BECMG 0101/0103 01012KT 4000 RASN BKN010 OVC025

Example: see airport list